sensor_id;sensor_type;location;lat;lon;timestamp;pressure;altitude;pressure_sealevel;temperature;humidity
43711;BME280;29309;42.682;23.372;2022-08-01T00:01:52;95099.75;;;20.32;54.66
43711;BME280;29309;42.682;23.372;2022-08-01T00:04:17;95102.47;;;20.26;55.81
43711;BME280;29309;42.682;23.372;2022-08-01T00:06:42;95104.59;;;20.27;56.62
43711;BME280;29309;42.682;23.372;2022-08-01T00:09:08;95110.19;;;20.23;57.03
43711;BME280;29309;42.682;23.372;2022-08-01T00:11:33;95100.94;;;20.17;57.48
43711;BME280;29309;42.682;23.372;2022-08-01T00:13:59;95111.50;;;20.16;58.18
43711;BME280;29309;42.682;23.372;2022-08-01T00:16:24;95107.25;;;20.13;58.29
43711;BME280;29309;42.682;23.372;2022-08-01T00:18:51;95098.81;;;20.15;58.28
43711;BME280;29309;42.682;23.372;2022-08-01T00:21:17;95104.31;;;20.03;58.58
43711;BME280;29309;42.682;23.372;2022-08-01T00:23:43;95116.25;;;20.01;58.61
43711;BME280;29309;42.682;23.372;2022-08-01T00:26:10;95114.00;;;19.90;59.00
43711;BME280;29309;42.682;23.372;2022-08-01T00:28:36;95112.56;;;19.87;58.92
43711;BME280;29309;42.682;23.372;2022-08-01T00:31:01;95109.59;;;19.75;59.28
43711;BME280;29309;42.682;23.372;2022-08-01T00:33:27;95115.94;;;19.75;59.56
43711;BME280;29309;42.682;23.372;2022-08-01T00:35:52;95115.84;;;19.67;59.42
43711;BME280;29309;42.682;23.372;2022-08-01T00:38:18;95110.09;;;19.61;59.61
43711;BME280;29309;42.682;23.372;2022-08-01T00:40:43;95109.31;;;19.54;59.91
43711;BME280;29309;42.682;23.372;2022-08-01T00:43:09;95110.66;;;19.49;60.09
43711;BME280;29309;42.682;23.372;2022-08-01T00:45:34;95104.97;;;19.45;59.84
43711;BME280;29309;42.682;23.372;2022-08-01T00:48:00;95106.28;;;19.40;59.73
43711;BME280;29309;42.682;23.372;2022-08-01T00:50:26;95104.09;;;19.35;59.85
43711;BME280;29309;42.682;23.372;2022-08-01T00:52:51;95114.63;;;19.34;60.26
43711;BME280;29309;42.682;23.372;2022-08-01T00:55:18;95101.16;;;19.29;60.31
43711;BME280;29309;42.682;23.372;2022-08-01T00:57:44;95099.84;;;19.36;59.93
43711;BME280;29309;42.682;23.372;2022-08-01T01:00:10;95095.63;;;19.35;59.81
43711;BME280;29309;42.682;23.372;2022-08-01T01:02:35;95093.44;;;19.29;60.06
43711;BME280;29309;42.682;23.372;2022-08-01T01:05:02;95087.91;;;19.35;60.01
43711;BME280;29309;42.682;23.372;2022-08-01T01:07:35;95082.88;;;19.28;60.31
43711;BME280;29309;42.682;23.372;2022-08-01T01:10:32;95074.50;;;19.34;60.35
43711;BME280;29309;42.682;23.372;2022-08-01T01:13:14;95077.97;;;19.30;60.37
43711;BME280;29309;42.682;23.372;2022-08-01T01:15:51;95080.09;;;19.32;60.15
43711;BME280;29309;42.682;23.372;2022-08-01T01:18:23;95082.16;;;19.27;60.75
43711;BME280;29309;42.682;23.372;2022-08-01T01:26:51;95075.13;;;19.28;60.71
43711;BME280;29309;42.682;23.372;2022-08-01T01:29:25;95072.94;;;19.25;60.90
43711;BME280;29309;42.682;23.372;2022-08-01T01:32:06;95070.78;;;19.19;61.10
43711;BME280;29309;42.682;23.372;2022-08-01T01:34:36;95066.44;;;19.12;61.08
43711;BME280;29309;42.682;23.372;2022-08-01T01:37:04;95068.53;;;19.11;61.11
43711;BME280;29309;42.682;23.372;2022-08-01T01:39:32;95072.09;;;19.14;61.51
43711;BME280;29309;42.682;23.372;2022-08-01T01:41:59;95063.56;;;19.08;61.50
43711;BME280;29309;42.682;23.372;2022-08-01T01:44:27;95060.75;;;19.08;61.61
43711;BME280;29309;42.682;23.372;2022-08-01T01:46:53;95061.50;;;19.10;61.33
43711;BME280;29309;42.682;23.372;2022-08-01T01:49:24;95060.03;;;19.05;61.01
43711;BME280;29309;42.682;23.372;2022-08-01T01:51:54;95057.94;;;19.08;61.20
43711;BME280;29309;42.682;23.372;2022-08-01T01:54:26;95051.59;;;19.07;60.76
43711;BME280;29309;42.682;23.372;2022-08-01T01:56:56;95055.13;;;19.08;60.66
43711;BME280;29309;42.682;23.372;2022-08-01T01:59:25;95057.94;;;19.06;60.20
43711;BME280;29309;42.682;23.372;2022-08-01T02:01:53;95054.25;;;18.97;59.65
43711;BME280;29309;42.682;23.372;2022-08-01T02:04:21;95048.00;;;19.01;59.70
43711;BME280;29309;42.682;23.372;2022-08-01T02:06:49;95047.28;;;19.00;59.44
43711;BME280;29309;42.682;23.372;2022-08-01T02:09:17;95044.53;;;19.06;59.23
43711;BME280;29309;42.682;23.372;2022-08-01T02:11:46;95043.88;;;19.10;58.60
43711;BME280;29309;42.682;23.372;2022-08-01T02:14:12;95039.69;;;19.09;58.64
43711;BME280;29309;42.682;23.372;2022-08-01T02:16:41;95038.91;;;19.06;58.23
43711;BME280;29309;42.682;23.372;2022-08-01T02:19:08;95041.03;;;19.06;58.27
43711;BME280;29309;42.682;23.372;2022-08-01T02:21:40;95041.72;;;19.04;58.19
43711;BME280;29309;42.682;23.372;2022-08-01T02:24:19;95048.78;;;19.05;58.53
43711;BME280;29309;42.682;23.372;2022-08-01T02:26:50;95042.38;;;19.01;58.77
43711;BME280;29309;42.682;23.372;2022-08-01T02:29:22;95040.84;;;18.92;59.70
43711;BME280;29309;42.682;23.372;2022-08-01T02:31:52;95048.50;;;18.87;59.96
43711;BME280;29309;42.682;23.372;2022-08-01T02:34:21;95045.75;;;18.91;60.05
43711;BME280;29309;42.682;23.372;2022-08-01T02:36:47;95041.53;;;18.92;59.30
43711;BME280;29309;42.682;23.372;2022-08-01T02:39:16;95043.44;;;18.80;59.91
43711;BME280;29309;42.682;23.372;2022-08-01T02:41:47;95039.84;;;18.75;59.72
43711;BME280;29309;42.682;23.372;2022-08-01T02:44:28;95042.66;;;18.75;59.41
43711;BME280;29309;42.682;23.372;2022-08-01T02:47:00;95041.78;;;18.64;59.71
43711;BME280;29309;42.682;23.372;2022-08-01T02:49:31;95045.88;;;18.57;59.64
43711;BME280;29309;42.682;23.372;2022-08-01T02:51:59;95057.13;;;18.57;59.59
43711;BME280;29309;42.682;23.372;2022-08-01T02:54:27;95044.50;;;18.58;59.56
43711;BME280;29309;42.682;23.372;2022-08-01T02:56:55;95043.75;;;18.56;60.09
43711;BME280;29309;42.682;23.372;2022-08-01T02:59:22;95043.06;;;18.57;60.01
43711;BME280;29309;42.682;23.372;2022-08-01T03:01:53;95034.47;;;18.49;60.07
43711;BME280;29309;42.682;23.372;2022-08-01T03:04:20;95049.16;;;18.46;59.96
43711;BME280;29309;42.682;23.372;2022-08-01T03:06:47;95051.19;;;18.41;60.36
43711;BME280;29309;42.682;23.372;2022-08-01T03:09:14;95048.34;;;18.37;60.23
43711;BME280;29309;42.682;23.372;2022-08-01T03:11:41;95047.66;;;18.39;60.10
43711;BME280;29309;42.682;23.372;2022-08-01T03:14:09;95043.31;;;18.32;60.06
43711;BME280;29309;42.682;23.372;2022-08-01T03:16:37;95046.09;;;18.30;59.97
43711;BME280;29309;42.682;23.372;2022-08-01T03:19:04;95048.81;;;18.26;59.87
43711;BME280;29309;42.682;23.372;2022-08-01T03:21:31;95050.78;;;18.17;60.04
43711;BME280;29309;42.682;23.372;2022-08-01T03:23:58;95050.13;;;18.20;60.42
43711;BME280;29309;42.682;23.372;2022-08-01T03:26:29;95047.25;;;18.16;60.32
43711;BME280;29309;42.682;23.372;2022-08-01T03:28:58;95046.50;;;18.14;60.33
43711;BME280;29309;42.682;23.372;2022-08-01T03:31:25;95049.97;;;18.12;60.50
43711;BME280;29309;42.682;23.372;2022-08-01T03:33:52;95049.38;;;18.18;60.42
43711;BME280;29309;42.682;23.372;2022-08-01T03:36:21;95047.28;;;18.18;60.40
43711;BME280;29309;42.682;23.372;2022-08-01T03:38:49;95053.00;;;18.23;60.85
43711;BME280;29309;42.682;23.372;2022-08-01T03:41:20;95054.56;;;18.32;60.42
43711;BME280;29309;42.682;23.372;2022-08-01T03:43:58;95059.00;;;18.45;60.64
43711;BME280;29309;42.682;23.372;2022-08-01T03:46:36;95058.75;;;18.71;60.25
43711;BME280;29309;42.682;23.372;2022-08-01T03:49:09;95058.94;;;18.81;59.00
43711;BME280;29309;42.682;23.372;2022-08-01T03:51:37;95056.81;;;18.81;59.65
43711;BME280;29309;42.682;23.372;2022-08-01T03:54:04;95056.50;;;19.05;59.26
43711;BME280;29309;42.682;23.372;2022-08-01T03:56:30;95060.44;;;19.36;57.99
43711;BME280;29309;42.682;23.372;2022-08-01T03:58:59;95054.81;;;19.36;57.50
43711;BME280;29309;42.682;23.372;2022-08-01T04:01:25;95061.50;;;19.58;57.94
43711;BME280;29309;42.682;23.372;2022-08-01T04:03:52;95063.16;;;19.78;56.89
43711;BME280;29309;42.682;23.372;2022-08-01T04:06:18;95056.81;;;19.79;56.74
43711;BME280;29309;42.682;23.372;2022-08-01T04:08:43;95068.91;;;19.90;56.48
43711;BME280;29309;42.682;23.372;2022-08-01T04:11:24;95058.47;;;20.00;55.48
43711;BME280;29309;42.682;23.372;2022-08-01T04:13:51;95072.75;;;20.17;55.47
43711;BME280;29309;42.682;23.372;2022-08-01T04:16:18;95075.09;;;20.34;54.99
43711;BME280;29309;42.682;23.372;2022-08-01T04:18:44;95068.84;;;20.42;54.53
43711;BME280;29309;42.682;23.372;2022-08-01T04:21:10;95068.88;;;20.48;53.83
43711;BME280;29309;42.682;23.372;2022-08-01T04:23:36;95068.25;;;20.53;54.12
43711;BME280;29309;42.682;23.372;2022-08-01T04:26:04;95062.06;;;20.69;53.76
43711;BME280;29309;42.682;23.372;2022-08-01T04:28:33;95068.53;;;20.88;53.44
43711;BME280;29309;42.682;23.372;2022-08-01T04:31:00;95066.59;;;21.08;52.78
43711;BME280;29309;42.682;23.372;2022-08-01T04:33:27;95071.00;;;21.32;51.45
43711;BME280;29309;42.682;23.372;2022-08-01T04:35:56;95070.31;;;21.31;51.50
43711;BME280;29309;42.682;23.372;2022-08-01T04:38:25;95074.47;;;21.20;52.05
43711;BME280;29309;42.682;23.372;2022-08-01T04:40:53;95072.34;;;21.19;51.54
43711;BME280;29309;42.682;23.372;2022-08-01T04:43:19;95060.97;;;21.08;51.96
43711;BME280;29309;42.682;23.372;2022-08-01T04:45:47;95053.88;;;21.07;51.79
43711;BME280;29309;42.682;23.372;2022-08-01T04:48:15;95058.81;;;21.05;51.66
43711;BME280;29309;42.682;23.372;2022-08-01T04:50:42;95065.06;;;20.95;52.10
43711;BME280;29309;42.682;23.372;2022-08-01T04:53:15;95069.22;;;20.84;52.51
43711;BME280;29309;42.682;23.372;2022-08-01T04:55:43;95066.28;;;20.70;52.56
43711;BME280;29309;42.682;23.372;2022-08-01T04:58:10;95061.84;;;20.49;53.46
43711;BME280;29309;42.682;23.372;2022-08-01T05:00:36;95047.72;;;20.45;53.50
43711;BME280;29309;42.682;23.372;2022-08-01T05:03:01;95051.94;;;20.46;53.53
43711;BME280;29309;42.682;23.372;2022-08-01T05:05:27;95049.75;;;20.36;53.54
43711;BME280;29309;42.682;23.372;2022-08-01T05:07:52;95047.50;;;20.25;53.81
43711;BME280;29309;42.682;23.372;2022-08-01T05:10:18;95055.94;;;20.25;54.02
43711;BME280;29309;42.682;23.372;2022-08-01T05:12:43;95047.44;;;20.23;54.20
43711;BME280;29309;42.682;23.372;2022-08-01T05:15:09;95047.44;;;20.23;54.28
43711;BME280;29309;42.682;23.372;2022-08-01T05:17:34;95046.16;;;20.30;53.90
43711;BME280;29309;42.682;23.372;2022-08-01T05:20:00;95039.09;;;20.29;54.08
43711;BME280;29309;42.682;23.372;2022-08-01T05:22:26;95041.97;;;20.37;53.74
43711;BME280;29309;42.682;23.372;2022-08-01T05:24:52;95049.78;;;20.40;53.84
43711;BME280;29309;42.682;23.372;2022-08-01T05:27:18;95036.38;;;20.39;52.76
43711;BME280;29309;42.682;23.372;2022-08-01T05:29:43;95046.22;;;20.38;52.04
43711;BME280;29309;42.682;23.372;2022-08-01T05:32:09;95044.84;;;20.41;52.06
43711;BME280;29309;42.682;23.372;2022-08-01T05:34:35;95047.78;;;20.51;52.10
43711;BME280;29309;42.682;23.372;2022-08-01T05:37:00;95045.72;;;20.57;51.68
43711;BME280;29309;42.682;23.372;2022-08-01T05:39:26;95047.13;;;20.56;51.21
43711;BME280;29309;42.682;23.372;2022-08-01T05:41:52;95042.94;;;20.61;51.41
43711;BME280;29309;42.682;23.372;2022-08-01T05:44:18;95035.25;;;20.68;50.87
43711;BME280;29309;42.682;23.372;2022-08-01T05:46:43;95046.53;;;20.70;50.37
43711;BME280;29309;42.682;23.372;2022-08-01T05:49:09;95047.34;;;20.83;49.10
43711;BME280;29309;42.682;23.372;2022-08-01T05:51:34;95044.56;;;20.89;48.61
43711;BME280;29309;42.682;23.372;2022-08-01T05:54:00;95053.84;;;21.03;49.32
43711;BME280;29309;42.682;23.372;2022-08-01T05:56:25;95054.59;;;21.10;49.33
43711;BME280;29309;42.682;23.372;2022-08-01T05:58:51;95053.25;;;21.15;48.83
43711;BME280;29309;42.682;23.372;2022-08-01T06:01:18;95054.03;;;21.26;48.87
43711;BME280;29309;42.682;23.372;2022-08-01T06:03:44;95048.38;;;21.24;48.79
43711;BME280;29309;42.682;23.372;2022-08-01T06:06:10;95056.94;;;21.36;48.86
43711;BME280;29309;42.682;23.372;2022-08-01T06:08:37;95052.03;;;21.42;48.74
43711;BME280;29309;42.682;23.372;2022-08-01T06:11:03;95052.84;;;21.59;47.87
43711;BME280;29309;42.682;23.372;2022-08-01T06:13:28;95039.63;;;22.04;46.42
43711;BME280;29309;42.682;23.372;2022-08-01T06:15:54;95039.72;;;22.54;46.11
43711;BME280;29309;42.682;23.372;2022-08-01T06:18:20;95043.31;;;23.01;44.00
43711;BME280;29309;42.682;23.372;2022-08-01T06:20:46;95047.56;;;23.47;41.91
43711;BME280;29309;42.682;23.372;2022-08-01T06:23:12;95053.06;;;23.91;41.33
43711;BME280;29309;42.682;23.372;2022-08-01T06:25:40;95045.84;;;24.29;40.71
43711;BME280;29309;42.682;23.372;2022-08-01T06:28:07;95039.97;;;24.63;40.08
43711;BME280;29309;42.682;23.372;2022-08-01T06:30:33;95051.84;;;24.90;39.04
43711;BME280;29309;42.682;23.372;2022-08-01T06:32:58;95046.66;;;25.21;38.60
43711;BME280;29309;42.682;23.372;2022-08-01T06:35:26;95046.31;;;25.57;38.25
43711;BME280;29309;42.682;23.372;2022-08-01T06:37:52;95038.00;;;26.00;36.98
43711;BME280;29309;42.682;23.372;2022-08-01T06:40:17;95033.94;;;26.42;36.38
43711;BME280;29309;42.682;23.372;2022-08-01T06:42:43;95034.84;;;26.77;34.73
43711;BME280;29309;42.682;23.372;2022-08-01T06:45:11;95031.88;;;26.87;33.48
43711;BME280;29309;42.682;23.372;2022-08-01T06:47:40;95028.81;;;27.00;33.23
43711;BME280;29309;42.682;23.372;2022-08-01T06:50:08;95030.06;;;27.11;32.96
43711;BME280;29309;42.682;23.372;2022-08-01T06:52:34;95027.03;;;27.21;32.35
43711;BME280;29309;42.682;23.372;2022-08-01T06:55:03;95028.06;;;27.44;31.76
43711;BME280;29309;42.682;23.372;2022-08-01T06:57:29;95022.03;;;27.23;32.08
43711;BME280;29309;42.682;23.372;2022-08-01T06:59:55;95016.94;;;27.28;32.31
43711;BME280;29309;42.682;23.372;2022-08-01T07:02:21;95019.56;;;27.40;31.81
43711;BME280;29309;42.682;23.372;2022-08-01T07:04:47;95006.56;;;27.51;31.53
43711;BME280;29309;42.682;23.372;2022-08-01T07:07:13;94996.47;;;27.93;31.09
43711;BME280;29309;42.682;23.372;2022-08-01T07:09:38;95007.38;;;27.84;31.09
43711;BME280;29309;42.682;23.372;2022-08-01T07:12:06;95008.22;;;27.38;32.00
43711;BME280;29309;42.682;23.372;2022-08-01T07:14:32;94997.53;;;27.36;31.46
43711;BME280;29309;42.682;23.372;2022-08-01T07:16:58;95010.66;;;27.62;32.06
43711;BME280;29309;42.682;23.372;2022-08-01T07:19:23;95004.25;;;27.97;31.41
43711;BME280;29309;42.682;23.372;2022-08-01T07:21:49;95010.78;;;28.28;31.26
43711;BME280;29309;42.682;23.372;2022-08-01T07:24:14;94991.97;;;28.39;30.49
43711;BME280;29309;42.682;23.372;2022-08-01T07:26:45;95015.75;;;28.60;30.74
43711;BME280;29309;42.682;23.372;2022-08-01T07:29:11;95006.44;;;28.29;30.79
43711;BME280;29309;42.682;23.372;2022-08-01T07:31:37;95018.16;;;28.50;30.11
43711;BME280;29309;42.682;23.372;2022-08-01T07:34:02;95020.03;;;28.61;29.63
43711;BME280;29309;42.682;23.372;2022-08-01T07:36:28;95008.31;;;28.75;29.79
43711;BME280;29309;42.682;23.372;2022-08-01T07:38:53;94998.94;;;28.79;29.80
43711;BME280;29309;42.682;23.372;2022-08-01T07:41:20;95007.06;;;28.97;29.31
43711;BME280;29309;42.682;23.372;2022-08-01T07:43:45;95010.28;;;28.83;29.30
43711;BME280;29309;42.682;23.372;2022-08-01T07:46:12;95009.34;;;28.91;29.15
43711;BME280;29309;42.682;23.372;2022-08-01T07:48:38;95013.94;;;28.79;29.55
43711;BME280;29309;42.682;23.372;2022-08-01T07:51:03;95018.19;;;29.09;29.18
43711;BME280;29309;42.682;23.372;2022-08-01T07:53:29;95025.41;;;29.37;29.13
43711;BME280;29309;42.682;23.372;2022-08-01T07:55:54;95016.53;;;29.18;29.05
43711;BME280;29309;42.682;23.372;2022-08-01T07:58:19;95005.38;;;29.08;29.18
43711;BME280;29309;42.682;23.372;2022-08-01T08:00:45;95010.06;;;29.20;29.22
43711;BME280;29309;42.682;23.372;2022-08-01T08:03:10;95013.00;;;29.16;29.03
43711;BME280;29309;42.682;23.372;2022-08-01T08:05:36;95019.16;;;29.00;29.35
43711;BME280;29309;42.682;23.372;2022-08-01T08:08:05;95018.94;;;29.08;29.80
43711;BME280;29309;42.682;23.372;2022-08-01T08:10:31;95018.72;;;29.16;29.55
43711;BME280;29309;42.682;23.372;2022-08-01T08:12:57;95015.66;;;28.97;29.98
43711;BME280;29309;42.682;23.372;2022-08-01T08:15:22;95012.13;;;29.23;29.58
43711;BME280;29309;42.682;23.372;2022-08-01T08:17:48;95015.06;;;29.19;29.53
43711;BME280;29309;42.682;23.372;2022-08-01T08:20:13;95005.22;;;29.43;29.58
43711;BME280;29309;42.682;23.372;2022-08-01T08:22:39;95008.50;;;29.25;29.26
43711;BME280;29309;42.682;23.372;2022-08-01T08:25:05;95009.50;;;29.13;29.39
43711;BME280;29309;42.682;23.372;2022-08-01T08:27:31;94995.38;;;29.07;29.75
43711;BME280;29309;42.682;23.372;2022-08-01T08:29:57;95007.19;;;29.20;29.38
43711;BME280;29309;42.682;23.372;2022-08-01T08:32:22;95007.47;;;29.10;29.48
43711;BME280;29309;42.682;23.372;2022-08-01T08:34:48;95012.13;;;29.23;29.50
43711;BME280;29309;42.682;23.372;2022-08-01T08:37:13;95004.41;;;29.18;28.98
43711;BME280;29309;42.682;23.372;2022-08-01T08:39:39;95014.22;;;29.25;28.92
43711;BME280;29309;42.682;23.372;2022-08-01T08:42:09;95009.59;;;29.40;29.00
43711;BME280;29309;42.682;23.372;2022-08-01T08:44:34;95007.00;;;29.30;28.90
43711;BME280;29309;42.682;23.372;2022-08-01T08:47:03;95016.66;;;29.43;28.89
43711;BME280;29309;42.682;23.372;2022-08-01T08:49:31;95009.31;;;29.21;28.41
43711;BME280;29309;42.682;23.372;2022-08-01T08:51:59;94998.97;;;29.06;29.18
43711;BME280;29309;42.682;23.372;2022-08-01T08:54:26;94999.69;;;29.06;29.10
43711;BME280;29309;42.682;23.372;2022-08-01T08:56:53;95001.13;;;28.76;29.21
43711;BME280;29309;42.682;23.372;2022-08-01T08:59:19;95007.53;;;28.77;28.92
43711;BME280;29309;42.682;23.372;2022-08-01T09:01:46;95005.63;;;28.67;29.28
43711;BME280;29309;42.682;23.372;2022-08-01T09:04:12;95004.84;;;29.00;28.52
43711;BME280;29309;42.682;23.372;2022-08-01T09:06:38;95003.09;;;29.13;27.76
43711;BME280;29309;42.682;23.372;2022-08-01T09:09:04;94997.34;;;28.86;28.24
43711;BME280;29309;42.682;23.372;2022-08-01T09:11:30;94978.41;;;28.70;28.49
43711;BME280;29309;42.682;23.372;2022-08-01T09:14:12;94986.19;;;28.74;28.82
43711;BME280;29309;42.682;23.372;2022-08-01T09:16:43;94996.19;;;28.42;29.44
43711;BME280;29309;42.682;23.372;2022-08-01T09:19:18;94985.84;;;28.57;28.94
43711;BME280;29309;42.682;23.372;2022-08-01T09:22:02;94994.13;;;28.39;29.16
43711;BME280;29309;42.682;23.372;2022-08-01T09:24:30;94989.97;;;28.64;29.16
43711;BME280;29309;42.682;23.372;2022-08-01T09:26:57;94982.63;;;28.73;29.24
43711;BME280;29309;42.682;23.372;2022-08-01T09:29:28;94992.50;;;28.78;29.13
43711;BME280;29309;42.682;23.372;2022-08-01T09:31:55;94991.53;;;28.90;28.44
43711;BME280;29309;42.682;23.372;2022-08-01T09:34:28;94992.53;;;28.76;28.10
43711;BME280;29309;42.682;23.372;2022-08-01T09:36:59;94988.16;;;28.81;28.39
43711;BME280;29309;42.682;23.372;2022-08-01T09:39:31;94984.50;;;29.14;28.11
43711;BME280;29309;42.682;23.372;2022-08-01T09:41:59;94996.06;;;28.79;27.59
43711;BME280;29309;42.682;23.372;2022-08-01T09:44:39;94982.19;;;28.61;28.22
43711;BME280;29309;42.682;23.372;2022-08-01T09:47:05;94996.31;;;28.67;27.86
43711;BME280;29309;42.682;23.372;2022-08-01T09:49:35;94980.97;;;28.52;28.06
43711;BME280;29309;42.682;23.372;2022-08-01T09:52:13;94987.31;;;28.54;28.34
43711;BME280;29309;42.682;23.372;2022-08-01T09:54:39;94988.22;;;28.47;28.45
43711;BME280;29309;42.682;23.372;2022-08-01T09:57:14;94979.16;;;28.69;29.00
43711;BME280;29309;42.682;23.372;2022-08-01T09:59:44;94979.22;;;28.96;28.28
43711;BME280;29309;42.682;23.372;2022-08-01T10:02:11;94973.00;;;29.16;28.08
43711;BME280;29309;42.682;23.372;2022-08-01T10:04:48;94986.97;;;29.30;28.81
43711;BME280;29309;42.682;23.372;2022-08-01T10:07:15;94984.03;;;29.32;28.30
43711;BME280;29309;42.682;23.372;2022-08-01T10:09:41;94975.72;;;29.22;28.11
43711;BME280;29309;42.682;23.372;2022-08-01T10:12:10;94974.56;;;29.40;27.87
43711;BME280;29309;42.682;23.372;2022-08-01T10:14:38;94974.47;;;29.15;28.23
43711;BME280;29309;42.682;23.372;2022-08-01T10:17:06;94967.78;;;28.96;28.56
43711;BME280;29309;42.682;23.372;2022-08-01T10:19:34;94977.50;;;28.47;29.57
43711;BME280;29309;42.682;23.372;2022-08-01T10:22:01;94963.00;;;28.57;29.79
43711;BME280;29309;42.682;23.372;2022-08-01T10:24:30;94966.06;;;28.47;29.63
43711;BME280;29309;42.682;23.372;2022-08-01T10:26:58;94957.78;;;28.35;29.38
43711;BME280;29309;42.682;23.372;2022-08-01T10:29:35;94966.31;;;28.37;29.80
43711;BME280;29309;42.682;23.372;2022-08-01T10:32:04;94970.56;;;28.38;29.32
43711;BME280;29309;42.682;23.372;2022-08-01T10:34:31;94969.63;;;28.17;29.84
43711;BME280;29309;42.682;23.372;2022-08-01T10:36:57;94953.56;;;28.32;29.72
43711;BME280;29309;42.682;23.372;2022-08-01T10:39:23;94958.28;;;28.44;30.09
43711;BME280;29309;42.682;23.372;2022-08-01T10:41:50;94940.56;;;28.39;29.80
43711;BME280;29309;42.682;23.372;2022-08-01T10:44:15;94955.97;;;28.52;29.81
43711;BME280;29309;42.682;23.372;2022-08-01T10:46:45;94960.97;;;28.21;30.42
43711;BME280;29309;42.682;23.372;2022-08-01T10:49:15;94962.66;;;28.08;30.48
43711;BME280;29309;42.682;23.372;2022-08-01T10:51:42;94946.81;;;27.80;30.83
43711;BME280;29309;42.682;23.372;2022-08-01T10:54:10;94954.25;;;27.65;31.03
43711;BME280;29309;42.682;23.372;2022-08-01T10:56:47;94949.38;;;27.59;30.76
43711;BME280;29309;42.682;23.372;2022-08-01T10:59:23;94950.31;;;27.84;30.92
43711;BME280;29309;42.682;23.372;2022-08-01T11:02:03;94950.00;;;27.99;30.62
43711;BME280;29309;42.682;23.372;2022-08-01T11:04:54;94946.25;;;28.08;30.59
43711;BME280;29309;42.682;23.372;2022-08-01T11:07:36;94952.66;;;28.09;30.36
43711;BME280;29309;42.682;23.372;2022-08-01T11:10:10;94943.63;;;28.29;30.23
43711;BME280;29309;42.682;23.372;2022-08-01T11:12:41;94951.56;;;28.26;29.77
43711;BME280;29309;42.682;23.372;2022-08-01T11:17:43;94948.50;;;28.02;30.07
43711;BME280;29309;42.682;23.372;2022-08-01T11:20:26;94932.41;;;27.88;31.02
43711;BME280;29309;42.682;23.372;2022-08-01T11:30:53;94927.97;;;28.28;30.43
43711;BME280;29309;42.682;23.372;2022-08-01T11:41:28;94922.50;;;28.18;30.66
43711;BME280;29309;42.682;23.372;2022-08-01T11:49:27;94925.56;;;28.98;31.42
43711;BME280;29309;42.682;23.372;2022-08-01T11:52:02;94927.94;;;28.90;30.78
43711;BME280;29309;42.682;23.372;2022-08-01T11:54:33;94924.13;;;28.99;30.67
43711;BME280;29309;42.682;23.372;2022-08-01T11:57:01;94922.94;;;28.90;30.68
43711;BME280;29309;42.682;23.372;2022-08-01T11:59:27;94928.44;;;28.69;30.79
43711;BME280;29309;42.682;23.372;2022-08-01T12:01:52;94919.03;;;28.75;31.43
43711;BME280;29309;42.682;23.372;2022-08-01T12:04:19;94912.75;;;28.97;30.57
43711;BME280;29309;42.682;23.372;2022-08-01T12:06:45;94917.69;;;28.99;30.65
43711;BME280;29309;42.682;23.372;2022-08-01T12:09:21;94915.31;;;28.80;31.05
43711;BME280;29309;42.682;23.372;2022-08-01T12:11:49;94916.44;;;28.92;31.13
43711;BME280;29309;42.682;23.372;2022-08-01T12:14:19;94922.59;;;29.02;31.20
43711;BME280;29309;42.682;23.372;2022-08-01T12:16:52;94927.56;;;29.04;30.96
43711;BME280;29309;42.682;23.372;2022-08-01T12:19:20;94931.16;;;28.75;31.41
43711;BME280;29309;42.682;23.372;2022-08-01T12:22:08;94920.84;;;28.58;31.29
43711;BME280;29309;42.682;23.372;2022-08-01T12:24:35;94918.22;;;28.78;30.19
43711;BME280;29309;42.682;23.372;2022-08-01T12:27:01;94928.47;;;28.36;31.44
43711;BME280;29309;42.682;23.372;2022-08-01T12:29:39;94925.34;;;28.18;32.09
43711;BME280;29309;42.682;23.372;2022-08-01T12:32:21;94925.03;;;27.99;33.07
43711;BME280;29309;42.682;23.372;2022-08-01T12:34:47;94911.78;;;27.83;32.26
43711;BME280;29309;42.682;23.372;2022-08-01T12:37:12;94927.88;;;27.64;33.02
43711;BME280;29309;42.682;23.372;2022-08-01T12:39:38;94919.84;;;27.38;33.42
43711;BME280;29309;42.682;23.372;2022-08-01T12:42:07;94920.41;;;27.47;32.27
43711;BME280;29309;42.682;23.372;2022-08-01T12:44:35;94920.00;;;27.30;33.38
43711;BME280;29309;42.682;23.372;2022-08-01T12:47:02;94904.31;;;27.31;32.98
43711;BME280;29309;42.682;23.372;2022-08-01T12:49:29;94917.50;;;27.10;33.06
43711;BME280;29309;42.682;23.372;2022-08-01T12:51:56;94925.13;;;27.21;32.86
43711;BME280;29309;42.682;23.372;2022-08-01T12:54:22;94910.34;;;27.13;34.03
43711;BME280;29309;42.682;23.372;2022-08-01T12:56:51;94908.19;;;27.13;34.18
43711;BME280;29309;42.682;23.372;2022-08-01T12:59:26;94907.31;;;27.21;34.08
43711;BME280;29309;42.682;23.372;2022-08-01T13:01:53;94900.16;;;27.24;34.72
43711;BME280;29309;42.682;23.372;2022-08-01T13:04:20;94915.16;;;27.20;33.78
43711;BME280;29309;42.682;23.372;2022-08-01T13:06:45;94904.44;;;27.23;33.21
43711;BME280;29309;42.682;23.372;2022-08-01T13:09:11;94901.88;;;27.09;33.72
43711;BME280;29309;42.682;23.372;2022-08-01T13:11:39;94892.41;;;27.18;33.55
43711;BME280;29309;42.682;23.372;2022-08-01T13:14:06;94906.16;;;27.08;33.68
43711;BME280;29309;42.682;23.372;2022-08-01T13:16:32;94889.19;;;27.02;33.92
43711;BME280;29309;42.682;23.372;2022-08-01T13:19:09;94897.88;;;26.91;34.36
43711;BME280;29309;42.682;23.372;2022-08-01T13:21:35;94894.94;;;26.98;34.67
43711;BME280;29309;42.682;23.372;2022-08-01T13:24:09;94889.09;;;27.06;34.32
43711;BME280;29309;42.682;23.372;2022-08-01T13:26:47;94889.13;;;27.04;34.53